createdAt,value
2018-11-12T00:00:13.814Z,10.03
2018-11-12T00:02:42.575Z,10.63
2018-11-12T00:05:11.336Z,10.13
2018-11-12T00:07:40.102Z,9.43
2018-11-12T00:10:09.132Z,9.57
2018-11-12T00:12:37.990Z,11.27
2018-11-12T00:15:07.444Z,9.73
2018-11-12T00:17:36.408Z,9.33
2018-11-12T00:20:05.831Z,9.00
2018-11-12T00:22:34.700Z,9.03
2018-11-12T00:25:04.234Z,9.13
2018-11-12T00:27:32.964Z,10.50
2018-11-12T00:30:02.376Z,8.40
2018-11-12T00:32:31.141Z,8.70
2018-11-12T00:34:59.894Z,8.13
2018-11-12T00:37:28.629Z,8.37
2018-11-12T00:39:57.374Z,7.03
2018-11-12T00:42:26.105Z,8.37
2018-11-12T00:44:54.813Z,7.23
2018-11-12T00:47:23.926Z,7.30
2018-11-12T00:49:53.089Z,6.80
2018-11-12T00:52:22.605Z,7.50
2018-11-12T00:54:51.316Z,7.23
2018-11-12T00:57:20.269Z,8.25
2018-11-12T00:59:49.008Z,7.43
2018-11-12T01:02:18.415Z,7.63
2018-11-12T01:04:47.408Z,7.73
2018-11-12T01:07:17.124Z,8.23
2018-11-12T01:09:45.864Z,7.73
2018-11-12T01:12:14.628Z,7.67
2018-11-12T01:14:43.380Z,7.10
2018-11-12T01:17:12.144Z,8.35
2018-11-12T01:19:40.860Z,7.50
2018-11-12T01:22:09.581Z,8.13
2018-11-12T01:24:38.317Z,7.37
2018-11-12T01:27:07.031Z,6.73
2018-11-12T01:29:35.749Z,6.07
2018-11-12T01:32:05.492Z,6.30
2018-11-12T01:34:34.846Z,6.30
2018-11-12T01:37:03.573Z,5.60
2018-11-12T01:39:32.297Z,5.60
2018-11-12T01:42:01.039Z,5.63
2018-11-12T01:44:30.293Z,5.23
2018-11-12T01:46:59.019Z,5.20
2018-11-12T01:49:28.288Z,5.70
2018-11-12T01:52:03.264Z,4.70
2018-11-12T01:54:31.997Z,5.17
2018-11-12T01:57:00.728Z,5.13
2018-11-12T01:59:29.433Z,4.43
2018-11-12T02:01:58.145Z,4.60
2018-11-12T02:04:26.888Z,5.30
2018-11-12T02:06:55.604Z,5.23
2018-11-12T02:09:24.361Z,6.00
2018-11-12T02:11:53.094Z,5.00
2018-11-12T02:14:21.861Z,4.40
2018-11-12T02:16:50.899Z,5.20
2018-11-12T02:19:20.714Z,4.27
2018-11-12T02:21:49.404Z,4.50
2018-11-12T02:24:18.126Z,4.43
2018-11-12T02:26:46.979Z,4.77
2018-11-12T02:29:16.470Z,4.60
2018-11-12T02:31:45.184Z,4.17
2018-11-12T02:34:14.563Z,4.50
2018-11-12T02:36:43.296Z,4.90
2018-11-12T02:39:12.083Z,4.03
2018-11-12T02:41:40.889Z,3.90
2018-11-12T02:44:09.709Z,5.50
2018-11-12T02:46:38.496Z,4.47
2018-11-12T02:49:07.616Z,4.10
2018-11-12T02:51:36.615Z,4.27
2018-11-12T02:54:05.703Z,3.92
2018-11-12T02:56:34.980Z,5.07
2018-11-12T02:59:05.504Z,4.57
2018-11-12T03:01:34.760Z,4.73
2018-11-12T03:04:03.484Z,4.47
2018-11-12T03:06:32.212Z,4.77
2018-11-12T03:09:00.924Z,4.60
2018-11-12T03:11:29.668Z,4.27
2018-11-12T03:13:58.700Z,4.97
2018-11-12T03:16:27.435Z,5.73
2018-11-12T03:18:56.225Z,4.85
2018-11-12T03:21:24.938Z,4.57
2018-11-12T03:23:53.847Z,5.07
2018-11-12T03:26:22.546Z,4.60
2018-11-12T03:28:51.265Z,4.77
2018-11-12T03:31:19.972Z,5.53
2018-11-12T03:33:48.709Z,5.90
2018-11-12T03:36:17.740Z,6.60
2018-11-12T03:38:46.461Z,6.87
2018-11-12T03:41:16.164Z,5.33
2018-11-12T03:43:45.016Z,7.75
2018-11-12T03:46:13.730Z,6.10
2018-11-12T03:48:43.576Z,7.53
2018-11-12T03:51:12.301Z,6.90
2018-11-12T03:53:41.680Z,6.30
2018-11-12T03:58:45.352Z,9.00
2018-11-12T04:01:14.402Z,7.93
2018-11-12T04:03:43.495Z,8.40
2018-11-12T04:06:12.528Z,7.93
2018-11-12T04:08:42.323Z,8.00
2018-11-12T04:11:11.031Z,9.37
2018-11-12T04:13:40.334Z,9.20
2018-11-12T04:16:09.048Z,9.63
2018-11-12T04:18:37.925Z,9.55
2018-11-12T04:21:06.636Z,9.83
2018-11-12T04:23:35.349Z,11.33
2018-11-12T04:26:04.879Z,9.30
2018-11-12T04:28:33.609Z,12.53
2018-11-12T04:31:02.328Z,13.13
2018-11-12T04:33:31.046Z,11.27
2018-11-12T04:36:02.750Z,9.73
2018-11-12T04:38:31.469Z,11.93
2018-11-12T04:41:00.700Z,9.30
2018-11-12T04:43:29.408Z,10.27
2018-11-12T04:45:58.666Z,10.90
2018-11-12T04:48:27.393Z,12.00
2018-11-12T04:50:56.116Z,9.93
2018-11-12T04:53:24.830Z,9.37
2018-11-12T04:55:53.572Z,10.13
2018-11-12T04:58:22.280Z,9.30
2018-11-12T05:00:51.012Z,9.07
2018-11-12T05:03:19.720Z,14.23
2018-11-12T05:05:48.448Z,9.93
2018-11-12T05:08:17.175Z,9.85
2018-11-12T05:10:45.934Z,10.77
2018-11-12T05:13:14.661Z,9.60
2018-11-12T05:15:43.840Z,9.90
2018-11-12T05:18:12.941Z,12.17
2018-11-12T05:20:41.627Z,9.73
2018-11-12T05:23:10.985Z,8.63
2018-11-12T05:25:39.708Z,10.45
2018-11-12T05:28:09.040Z,9.97
2018-11-12T05:30:37.769Z,11.53
2018-11-12T05:33:07.172Z,12.40
2018-11-12T05:35:35.904Z,11.63
2018-11-12T05:38:05.723Z,13.58
2018-11-12T05:40:34.440Z,13.33
2018-11-12T05:43:03.139Z,12.17
2018-11-12T05:45:31.941Z,12.30
2018-11-12T05:48:01.655Z,14.63
2018-11-12T05:50:31.923Z,11.60
2018-11-12T05:53:02.591Z,13.17
2018-11-12T05:55:31.794Z,11.97
2018-11-12T05:58:01.100Z,11.83
2018-11-12T06:00:36.955Z,12.83
2018-11-12T06:03:05.814Z,13.93
2018-11-12T06:05:35.125Z,12.90
2018-11-12T06:08:04.002Z,10.90
2018-11-12T06:10:33.815Z,13.40
2018-11-12T06:13:03.758Z,11.90
2018-11-12T06:15:32.452Z,12.17
2018-11-12T06:18:01.164Z,12.57
2018-11-12T06:20:31.420Z,13.67
2018-11-12T06:23:00.361Z,11.20
2018-11-12T06:25:30.490Z,10.70
2018-11-12T06:27:59.277Z,11.43
2018-11-12T06:30:29.764Z,12.43
2018-11-12T06:32:58.468Z,9.20
2018-11-12T06:35:27.168Z,10.10
2018-11-12T06:37:56.519Z,11.80
2018-11-12T06:40:26.080Z,11.23
2018-11-12T06:42:54.812Z,11.50
2018-11-12T06:45:25.755Z,10.20
2018-11-12T06:47:55.369Z,9.37
2018-11-12T06:50:26.296Z,10.30
2018-11-12T06:52:55.159Z,10.70
2018-11-12T06:55:24.277Z,13.27
2018-11-12T06:57:53.546Z,12.23
2018-11-12T07:00:24.512Z,10.25
2018-11-12T07:02:54.082Z,10.53
2018-11-12T07:05:22.823Z,11.73
2018-11-12T07:07:51.552Z,8.97
2018-11-12T07:10:21.732Z,13.15
2018-11-12T07:12:56.949Z,8.07
2018-11-12T07:15:42.372Z,9.70
2018-11-12T07:18:16.777Z,12.33
2018-11-12T07:20:45.503Z,13.47
2018-11-12T07:23:14.249Z,11.43
2018-11-12T07:25:42.956Z,15.90
2018-11-12T07:28:11.673Z,12.68
2018-11-12T07:30:40.745Z,14.30
2018-11-12T07:33:09.615Z,14.77
2018-11-12T07:35:38.583Z,13.67
2018-11-12T07:38:07.288Z,9.50
2018-11-12T07:40:35.986Z,13.20
2018-11-12T07:43:05.068Z,11.83
2018-11-12T07:45:33.988Z,10.37
2018-11-12T07:48:02.952Z,11.60
2018-11-12T07:50:31.804Z,12.40
2018-11-12T07:53:00.539Z,11.33
2018-11-12T07:55:29.592Z,11.13
2018-11-12T07:57:59.209Z,11.60
2018-11-12T08:00:30.138Z,10.70
2018-11-12T08:03:06.052Z,10.13
2018-11-12T08:05:35.076Z,11.13
2018-11-12T08:08:04.953Z,11.40
2018-11-12T08:10:33.713Z,9.40
2018-11-12T08:13:02.427Z,10.43
2018-11-12T08:15:31.400Z,8.63
2018-11-12T08:18:00.100Z,9.73
2018-11-12T08:20:28.807Z,11.60
2018-11-12T08:22:57.518Z,9.50
2018-11-12T08:25:26.209Z,9.10
2018-11-12T08:27:54.912Z,9.57
2018-11-12T08:30:24.904Z,9.20
2018-11-12T08:32:54.844Z,8.77
2018-11-12T08:35:23.544Z,10.23
2018-11-12T08:37:52.635Z,7.60
2018-11-12T08:40:22.714Z,13.00
2018-11-12T08:42:51.367Z,9.17
2018-11-12T08:45:20.072Z,9.55
2018-11-12T08:47:50.120Z,8.93
2018-11-12T08:50:20.118Z,11.03
2018-11-12T08:52:49.608Z,8.07
2018-11-12T08:55:19.547Z,8.53
2018-11-12T08:57:49.636Z,8.23
2018-11-12T09:00:19.181Z,6.17
2018-11-12T09:02:48.090Z,12.63
2018-11-12T09:05:17.937Z,10.87
2018-11-12T09:07:48.144Z,10.83
2018-11-12T09:10:18.492Z,8.37
2018-11-12T09:12:47.317Z,10.57
2018-11-12T09:15:16.204Z,11.53
2018-11-12T09:17:45.891Z,10.37
2018-11-12T09:20:16.187Z,8.73
2018-11-12T09:22:44.937Z,8.70
2018-11-12T09:25:15.826Z,8.97
2018-11-12T09:27:44.720Z,8.93
2018-11-12T09:30:15.251Z,8.50
2018-11-12T09:32:44.303Z,7.77
2018-11-12T09:35:16.029Z,7.83
2018-11-12T09:37:45.897Z,8.03
2018-11-12T09:40:19.033Z,10.25
2018-11-12T09:42:47.822Z,9.23
2018-11-12T09:45:16.546Z,8.30
2018-11-12T09:47:45.605Z,7.50
2018-11-12T09:50:15.449Z,7.75
2018-11-12T09:52:45.314Z,11.97
2018-11-12T09:55:14.629Z,9.25
2018-11-12T09:57:45.616Z,11.97
2018-11-12T10:00:15.732Z,11.83
2018-11-12T10:02:46.274Z,9.00
2018-11-12T10:05:15.704Z,7.87
2018-11-12T10:07:45.702Z,14.03
2018-11-12T10:10:23.448Z,9.73
2018-11-12T10:12:52.084Z,11.57
2018-11-12T10:15:22.189Z,13.67
2018-11-12T10:17:50.054Z,9.67
2018-11-12T10:20:16.188Z,9.45
2018-11-12T10:22:45.036Z,7.90
2018-11-12T10:25:13.756Z,10.43
2018-11-12T10:27:42.448Z,10.70
2018-11-12T10:30:11.160Z,9.90
2018-11-12T10:32:40.079Z,9.73
2018-11-12T10:35:09.420Z,9.73
2018-11-12T10:37:38.800Z,7.43
2018-11-12T10:40:09.909Z,10.63
2018-11-12T10:42:38.649Z,9.57
2018-11-12T10:45:07.465Z,9.50
2018-11-12T10:47:36.197Z,10.23
2018-11-12T10:50:05.882Z,9.40
2018-11-12T10:52:34.807Z,8.27
2018-11-12T10:55:05.367Z,9.63
2018-11-12T10:57:32.208Z,11.30
2018-11-12T11:00:00.912Z,10.63
2018-11-12T11:02:32.641Z,11.73
2018-11-12T11:05:01.822Z,10.87
2018-11-12T11:07:30.500Z,11.90
2018-11-12T11:09:59.373Z,11.63
2018-11-12T11:12:28.099Z,12.57
2018-11-12T11:14:56.807Z,11.47
2018-11-12T11:17:25.520Z,9.33
2018-11-12T11:19:54.248Z,12.07
2018-11-12T11:22:22.989Z,11.65
2018-11-12T11:24:51.688Z,12.80
2018-11-12T11:27:20.388Z,8.90
2018-11-12T11:29:49.099Z,10.07
2018-11-12T11:32:17.804Z,11.63
2018-11-12T11:34:46.503Z,9.83
2018-11-12T11:37:15.430Z,11.13
2018-11-12T11:39:44.129Z,14.47
2018-11-12T11:42:12.836Z,12.58
2018-11-12T11:44:41.545Z,15.63
2018-11-12T11:47:10.253Z,11.83
2018-11-12T11:49:39.032Z,15.83
2018-11-12T11:52:07.737Z,12.53
2018-11-12T11:54:36.468Z,14.03
2018-11-12T11:57:05.384Z,16.20
2018-11-12T11:59:34.099Z,11.83
2018-11-12T12:02:02.821Z,12.13
2018-11-12T12:04:31.522Z,12.03
2018-11-12T12:07:00.247Z,13.00
2018-11-12T12:09:29.007Z,17.00
2018-11-12T12:11:57.707Z,13.87
2018-11-12T12:14:26.408Z,16.93
2018-11-12T12:16:55.113Z,17.07
2018-11-12T12:19:23.816Z,12.97
2018-11-12T12:21:52.793Z,11.90
2018-11-12T12:24:21.558Z,10.88
2018-11-12T12:26:50.332Z,12.53
2018-11-12T12:29:19.384Z,12.78
2018-11-12T12:31:48.080Z,11.63
2018-11-12T12:34:16.797Z,15.13
2018-11-12T12:36:45.832Z,13.47
2018-11-12T12:39:14.476Z,17.40
2018-11-12T12:41:43.174Z,19.40
2018-11-12T12:44:12.154Z,19.03
2018-11-12T12:46:40.853Z,20.08
2018-11-12T12:49:09.559Z,19.57
2018-11-12T12:51:38.339Z,18.97
2018-11-12T12:54:06.996Z,16.80
2018-11-12T12:56:35.711Z,14.80
2018-11-12T12:59:05.764Z,19.80
2018-11-12T13:01:34.499Z,17.83
2018-11-12T13:04:04.002Z,15.23
2018-11-12T13:06:32.767Z,19.65
2018-11-12T13:09:01.668Z,20.37
2018-11-12T13:11:30.371Z,16.70
2018-11-12T13:13:59.343Z,20.13
2018-11-12T13:16:28.005Z,16.67
2018-11-12T13:18:56.708Z,17.70
2018-11-12T13:21:25.464Z,18.37
2018-11-12T13:23:54.129Z,16.37
2018-11-12T13:26:22.843Z,12.43
2018-11-12T13:28:51.536Z,12.90
2018-11-12T13:31:20.254Z,11.37
2018-11-12T13:33:48.976Z,10.40
2018-11-12T13:36:17.673Z,8.00
2018-11-12T13:38:46.499Z,8.47
2018-11-12T13:41:15.200Z,9.18
2018-11-12T13:43:43.888Z,8.13
2018-11-12T13:46:12.596Z,8.13
2018-11-12T13:48:41.355Z,6.97
2018-11-12T13:51:10.040Z,6.92
2018-11-12T13:53:38.733Z,7.57
2018-11-12T13:56:07.964Z,8.27
2018-11-12T13:58:37.644Z,9.50
2018-11-12T14:01:07.168Z,9.67
2018-11-12T14:03:35.888Z,9.27
2018-11-12T14:06:04.899Z,9.17
2018-11-12T14:08:33.620Z,8.47
2018-11-12T14:11:03.248Z,8.33
2018-11-12T14:13:31.947Z,12.13
2018-11-12T14:16:00.651Z,10.60
2018-11-12T14:18:29.376Z,12.10
2018-11-12T14:20:58.760Z,11.27
2018-11-12T14:23:27.424Z,9.70
2018-11-12T14:25:56.128Z,13.67
2018-11-12T14:28:24.946Z,9.85
2018-11-12T14:30:53.549Z,10.30
2018-11-12T14:33:22.309Z,12.25
2018-11-12T14:35:51.030Z,11.60
2018-11-12T14:38:19.695Z,11.67
2018-11-12T14:40:48.413Z,12.13
2018-11-12T14:43:17.140Z,10.97
2018-11-12T14:45:45.831Z,9.70
2018-11-12T14:48:14.533Z,9.80
2018-11-12T14:50:43.271Z,9.93
2018-11-12T14:53:12.000Z,8.03
2018-11-12T14:55:40.712Z,11.43
2018-11-12T14:58:09.468Z,9.67
2018-11-12T15:00:38.361Z,11.68
2018-11-12T15:03:07.053Z,9.40
2018-11-12T15:05:35.747Z,9.77
2018-11-12T15:08:05.332Z,10.70
2018-11-12T15:10:34.069Z,10.40
2018-11-12T15:13:02.763Z,8.57
2018-11-12T15:15:31.493Z,10.40
2018-11-12T15:18:00.200Z,9.97
2018-11-12T15:20:28.929Z,11.43
2018-11-12T15:22:57.625Z,11.10
2018-11-12T15:25:26.400Z,10.50
2018-11-12T15:27:55.129Z,10.03
2018-11-12T15:33:23.362Z,8.80
2018-11-12T15:35:52.561Z,9.50
2018-11-12T15:38:21.365Z,8.85
2018-11-12T15:40:50.067Z,8.00
2018-11-12T15:43:18.855Z,9.40
2018-11-12T15:45:47.653Z,8.87
2018-11-12T15:48:16.350Z,6.80
2018-11-12T15:50:45.067Z,9.20
2018-11-12T15:53:13.746Z,8.33
2018-11-12T15:55:42.453Z,12.23
2018-11-12T15:58:11.194Z,10.43
2018-11-12T16:00:39.920Z,10.63
2018-11-12T16:03:08.614Z,8.77
2018-11-12T16:05:37.529Z,9.87
2018-11-12T16:08:07.071Z,8.53
2018-11-12T16:10:35.756Z,8.97
2018-11-12T16:13:04.941Z,9.90
2018-11-12T16:15:33.661Z,12.13
2018-11-12T16:18:02.412Z,10.37
2018-11-12T16:20:31.299Z,8.43
2018-11-12T16:23:00.880Z,11.83
2018-11-12T16:25:30.026Z,10.83
2018-11-12T16:27:58.807Z,11.70
2018-11-12T16:30:27.514Z,11.70
2018-11-12T16:32:56.225Z,13.70
2018-11-12T16:35:25.437Z,11.67
2018-11-12T16:37:54.832Z,13.70
2018-11-12T16:40:23.612Z,12.37
2018-11-12T16:42:52.260Z,11.97
2018-11-12T16:45:21.002Z,16.20
2018-11-12T16:47:49.707Z,18.20
2018-11-12T16:50:18.532Z,21.70
2018-11-12T16:52:47.350Z,15.77
2018-11-12T16:55:17.396Z,15.83
2018-11-12T16:57:46.261Z,15.97
2018-11-12T17:00:17.008Z,19.37
2018-11-12T17:02:46.624Z,14.73
2018-11-12T17:05:16.837Z,18.03
2018-11-12T17:07:46.443Z,16.43
2018-11-12T17:10:22.853Z,17.87
2018-11-12T17:12:51.564Z,15.83
2018-11-12T17:15:20.259Z,18.50
2018-11-12T17:17:49.177Z,17.23
2018-11-12T17:20:19.194Z,16.05
2018-11-12T17:22:48.565Z,15.77
2018-11-12T17:25:17.628Z,14.57
2018-11-12T17:27:46.663Z,16.93
2018-11-12T17:30:18.120Z,13.08
2018-11-12T17:32:47.332Z,18.30
2018-11-12T17:35:17.424Z,19.97
2018-11-12T17:37:46.132Z,22.10
2018-11-12T17:40:18.875Z,19.33
2018-11-12T17:42:48.508Z,15.17
2018-11-12T17:45:18.454Z,17.65
2018-11-12T17:47:48.972Z,16.77
2018-11-12T17:50:18.476Z,15.03
2018-11-12T17:52:47.232Z,20.20
2018-11-12T17:55:16.945Z,17.43
2018-11-12T17:57:45.645Z,17.57
2018-11-12T18:00:17.708Z,15.37
2018-11-12T18:02:46.864Z,19.07
2018-11-12T18:05:15.571Z,18.30
2018-11-12T18:07:44.407Z,22.33
2018-11-12T18:10:13.964Z,16.63
2018-11-12T18:12:42.683Z,19.10
2018-11-12T18:15:17.935Z,19.12
2018-11-12T18:17:46.708Z,20.23
2018-11-12T18:20:17.111Z,22.70
2018-11-12T18:22:45.863Z,18.30
2018-11-12T18:25:15.021Z,20.50
2018-11-12T18:30:43.907Z,18.60
2018-11-12T18:33:12.344Z,20.70
2018-11-12T18:35:41.093Z,19.83
2018-11-12T18:38:09.836Z,22.55
2018-11-12T18:40:38.535Z,18.80
2018-11-12T18:43:07.283Z,21.00
2018-11-12T18:45:36.000Z,20.60
2018-11-12T18:48:04.770Z,21.47
2018-11-12T18:50:33.470Z,18.67
2018-11-12T18:53:02.212Z,19.97
2018-11-12T18:55:30.924Z,20.20
2018-11-12T18:57:59.787Z,21.37
2018-11-12T19:00:28.516Z,24.70
2018-11-12T19:02:57.316Z,21.77
2018-11-12T19:05:27.225Z,26.73
2018-11-12T19:07:57.255Z,23.63
2018-11-12T19:10:27.259Z,23.27
2018-11-12T19:12:55.968Z,24.20
2018-11-12T19:15:26.085Z,24.65
2018-11-12T19:17:58.143Z,23.87
2018-11-12T19:20:26.865Z,26.27
2018-11-12T19:22:55.817Z,21.50
2018-11-12T19:25:24.905Z,23.10
2018-11-12T19:27:53.939Z,22.77
2018-11-12T19:30:24.016Z,20.53
2018-11-12T19:32:58.956Z,26.03
2018-11-12T19:35:29.054Z,29.63
2018-11-12T19:37:57.900Z,25.73
2018-11-12T19:40:27.921Z,24.40
2018-11-12T19:42:58.708Z,26.07
2018-11-12T19:45:27.621Z,24.77
2018-11-12T19:47:56.411Z,24.50
2018-11-12T19:50:26.437Z,27.83
2018-11-12T19:52:56.269Z,27.33
2018-11-12T19:55:41.160Z,27.00
2018-11-12T19:58:11.624Z,24.30
2018-11-12T20:00:40.791Z,24.97
2018-11-12T20:03:09.501Z,25.63
2018-11-12T20:05:38.226Z,24.20
2018-11-12T20:08:07.037Z,23.13
2018-11-12T20:10:35.860Z,30.07
2018-11-12T20:15:53.696Z,21.40
2018-11-12T20:18:22.500Z,21.85
2018-11-12T20:20:51.233Z,23.50
2018-11-12T20:23:19.964Z,26.43
2018-11-12T20:25:48.674Z,22.40
2018-11-12T20:28:17.405Z,25.95
2018-11-12T20:30:46.211Z,23.47
2018-11-12T20:33:15.328Z,25.57
2018-11-12T20:35:44.002Z,27.50
2018-11-12T20:38:13.112Z,27.43
2018-11-12T20:40:41.833Z,28.00
2018-11-12T20:43:10.564Z,24.43
2018-11-12T20:45:39.309Z,21.60
2018-11-12T20:48:08.346Z,26.45
2018-11-12T20:50:43.696Z,22.47
2018-11-12T20:53:12.765Z,28.83
2018-11-12T20:55:41.800Z,23.43
2018-11-12T20:58:10.738Z,28.95
2018-11-12T21:00:39.677Z,23.27
2018-11-12T21:03:14.595Z,26.67
2018-11-12T21:05:43.484Z,26.43
2018-11-12T21:08:12.201Z,28.73
2018-11-12T21:10:40.953Z,28.53
2018-11-12T21:13:09.663Z,25.47
2018-11-12T21:15:38.428Z,29.27
2018-11-12T21:18:07.228Z,22.87
2018-11-12T21:20:36.822Z,22.80
2018-11-12T21:23:05.860Z,22.57
2018-11-12T21:25:34.824Z,22.70
2018-11-12T21:28:03.813Z,26.43
2018-11-12T21:30:32.898Z,31.67
2018-11-12T21:33:01.796Z,27.47
2018-11-12T21:35:30.769Z,23.80
2018-11-12T21:37:59.520Z,24.17
2018-11-12T21:40:29.032Z,23.27
2018-11-12T21:42:58.131Z,23.23
2018-11-12T21:45:28.429Z,24.77
2018-11-12T21:47:57.436Z,21.60
2018-11-12T21:50:26.231Z,23.10
2018-11-12T21:52:54.972Z,23.67
2018-11-12T21:55:23.729Z,22.03
2018-11-12T21:57:52.440Z,25.07
2018-11-12T22:00:22.714Z,28.12
2018-11-12T22:02:53.808Z,27.13
2018-11-12T22:05:22.820Z,30.43
2018-11-12T22:07:51.691Z,26.80
2018-11-12T22:10:20.698Z,25.12
2018-11-12T22:12:50.426Z,28.93
2018-11-12T22:15:26.112Z,24.30
2018-11-12T22:17:54.827Z,30.68
2018-11-12T22:20:25.036Z,25.47
2018-11-12T22:22:53.736Z,26.67
2018-11-12T22:25:22.945Z,26.05
2018-11-12T22:27:52.697Z,35.37
2018-11-12T22:30:23.575Z,29.43
2018-11-12T22:32:53.189Z,27.20
2018-11-12T22:35:22.912Z,26.82
2018-11-12T22:37:51.600Z,29.40
2018-11-12T22:40:21.352Z,29.77
2018-11-12T22:42:50.857Z,32.60
2018-11-12T22:45:20.748Z,32.70
2018-11-12T22:47:50.980Z,33.77
2018-11-12T22:50:19.693Z,37.07
2018-11-12T22:52:48.419Z,33.37
2018-11-12T22:55:18.575Z,40.83
2018-11-12T22:57:47.281Z,36.63
2018-11-12T23:00:24.233Z,28.37
2018-11-12T23:02:53.169Z,28.77
2018-11-12T23:05:22.161Z,27.25
2018-11-12T23:07:51.304Z,31.00
2018-11-12T23:10:20.438Z,29.57
2018-11-12T23:12:49.184Z,29.67
2018-11-12T23:15:18.427Z,25.88
2018-11-12T23:17:47.154Z,25.23
2018-11-12T23:20:17.836Z,30.13
2018-11-12T23:22:47.351Z,23.80
2018-11-12T23:25:16.051Z,27.77
2018-11-12T23:27:45.564Z,31.63
2018-11-12T23:30:15.560Z,29.60
2018-11-12T23:32:44.436Z,33.57
2018-11-12T23:35:15.495Z,30.05
2018-11-12T23:37:44.792Z,32.07
2018-11-12T23:40:13.891Z,31.60
2018-11-12T23:42:43.116Z,31.17
2018-11-12T23:45:11.860Z,37.83
2018-11-12T23:47:40.689Z,32.80
2018-11-12T23:50:11.605Z,35.70
2018-11-12T23:52:40.803Z,39.00
2018-11-12T23:55:09.623Z,40.33
2018-11-12T23:57:38.336Z,30.37
